createdAt,value
2023-02-13T00:00:04.568Z,117.77
2023-02-13T00:01:04.492Z,117.35
2023-02-13T00:02:04.562Z,118.10
2023-02-13T00:03:04.485Z,117.85
2023-02-13T00:04:04.493Z,118.10
2023-02-13T00:05:04.491Z,118.43
2023-02-13T00:06:04.433Z,117.35
2023-02-13T00:07:04.445Z,117.93
2023-02-13T00:08:04.408Z,117.77
2023-02-13T00:09:06.393Z,118.60
2023-02-13T00:10:04.424Z,118.10
2023-02-13T00:11:04.445Z,118.35
2023-02-13T00:12:04.392Z,118.27
2023-02-13T00:13:04.369Z,117.68
2023-02-13T00:14:04.368Z,118.18
2023-02-13T00:15:04.382Z,118.10
2023-02-13T00:16:04.393Z,118.43
2023-02-13T00:17:04.366Z,118.35
2023-02-13T00:18:04.377Z,118.18
2023-02-13T00:19:04.297Z,118.77
2023-02-13T00:20:04.317Z,119.11
2023-02-13T00:21:05.148Z,117.68
2023-02-13T00:22:04.266Z,118.77
2023-02-13T00:23:04.262Z,118.27
2023-02-13T00:24:04.247Z,117.93
2023-02-13T00:25:04.251Z,119.45
2023-02-13T00:26:04.235Z,118.60
2023-02-13T00:27:04.254Z,118.27
2023-02-13T00:28:04.238Z,119.11
2023-02-13T00:29:04.199Z,118.77
2023-02-13T00:30:04.206Z,119.20
2023-02-13T00:31:04.210Z,118.86
2023-02-13T00:32:04.270Z,119.28
2023-02-13T00:33:04.162Z,119.03
2023-02-13T00:34:04.127Z,118.69
2023-02-13T00:35:04.138Z,119.79
2023-02-13T00:36:04.101Z,118.60
2023-02-13T00:37:04.118Z,119.11
2023-02-13T00:38:04.152Z,118.77
2023-02-13T00:39:04.102Z,118.35
2023-02-13T00:40:04.063Z,118.43
2023-02-13T00:41:04.097Z,119.03
2023-02-13T00:42:04.070Z,118.69
2023-02-13T00:43:04.083Z,118.94
2023-02-13T00:44:04.048Z,118.27
2023-02-13T00:45:04.013Z,118.18
2023-02-13T00:46:04.048Z,117.93
2023-02-13T00:47:04.024Z,117.77
2023-02-13T00:48:04.049Z,117.85
2023-02-13T00:49:03.969Z,118.27
2023-02-13T00:50:04.019Z,118.35
2023-02-13T00:51:03.996Z,118.60
2023-02-13T00:52:03.926Z,118.94
2023-02-13T00:53:04.017Z,118.86
2023-02-13T00:54:03.966Z,118.60
2023-02-13T00:55:03.911Z,119.03
2023-02-13T00:56:03.919Z,119.37
2023-02-13T00:57:03.888Z,120.23
2023-02-13T00:58:03.913Z,119.45
2023-02-13T00:59:03.853Z,120.31
2023-02-13T01:00:03.840Z,120.75
2023-02-13T01:01:03.865Z,120.14
2023-02-13T01:02:03.876Z,119.79
2023-02-13T01:03:03.822Z,120.66
2023-02-13T01:04:04.673Z,120.31
2023-02-13T01:05:03.866Z,120.40
2023-02-13T01:06:03.811Z,121.45
2023-02-13T01:07:03.771Z,120.66
2023-02-13T01:08:04.437Z,122.70
2023-02-13T01:09:04.633Z,121.63
2023-02-13T01:10:03.739Z,122.61
2023-02-13T01:11:03.750Z,122.88
2023-02-13T01:12:03.731Z,122.70
2023-02-13T01:13:03.738Z,123.89
2023-02-13T01:14:03.709Z,123.79
2023-02-13T01:15:03.716Z,124.91
2023-02-13T01:16:03.744Z,125.19
2023-02-13T01:17:05.308Z,125.28
2023-02-13T01:18:03.671Z,125.56
2023-02-13T01:19:03.693Z,125.09
2023-02-13T01:20:03.658Z,125.47
2023-02-13T01:21:03.651Z,125.94
2023-02-13T01:22:03.612Z,126.71
2023-02-13T01:23:06.264Z,127.87
2023-02-13T01:24:03.623Z,128.66
2023-02-13T01:25:03.641Z,129.96
2023-02-13T01:26:03.588Z,132.23
2023-02-13T01:27:03.558Z,132.76
2023-02-13T01:28:03.609Z,134.14
2023-02-13T01:29:03.543Z,136.11
2023-02-13T01:30:03.583Z,137.01
2023-02-13T01:31:03.828Z,137.91
2023-02-13T01:32:03.704Z,138.14
2023-02-13T01:33:03.517Z,139.29
2023-02-13T01:34:03.534Z,139.06
2023-02-13T01:35:04.221Z,140.47
2023-02-13T01:36:03.489Z,138.37
2023-02-13T01:37:03.449Z,139.41
2023-02-13T01:38:03.487Z,139.29
2023-02-13T01:39:03.446Z,139.76
2023-02-13T01:40:03.422Z,140.70
2023-02-13T01:41:03.428Z,140.70
2023-02-13T01:42:03.415Z,139.76
2023-02-13T01:43:03.371Z,140.23
2023-02-13T01:44:03.354Z,140.82
2023-02-13T01:45:03.373Z,141.06
2023-02-13T01:46:03.355Z,140.70
2023-02-13T01:47:03.350Z,141.30
2023-02-13T01:48:05.640Z,141.66
2023-02-13T01:49:03.301Z,142.02
2023-02-13T01:50:03.316Z,141.66
2023-02-13T01:51:03.328Z,141.42
2023-02-13T01:52:03.306Z,142.87
2023-02-13T01:53:03.273Z,142.38
2023-02-13T01:54:03.284Z,143.98
2023-02-13T01:55:03.244Z,143.61
2023-02-13T01:56:03.308Z,144.23
2023-02-13T01:57:03.283Z,145.23
2023-02-13T01:58:03.234Z,145.87
2023-02-13T01:59:03.247Z,146.51
2023-02-13T02:00:03.197Z,146.12
2023-02-13T02:01:03.229Z,146.64
2023-02-13T02:02:03.306Z,146.90
2023-02-13T02:03:03.249Z,148.07
2023-02-13T02:04:03.165Z,147.68
2023-02-13T02:05:03.160Z,149.13
2023-02-13T02:06:03.153Z,149.66
2023-02-13T02:07:03.163Z,150.47
2023-02-13T02:08:03.114Z,151.02
2023-02-13T02:09:03.095Z,151.57
2023-02-13T02:10:03.111Z,151.98
2023-02-13T02:11:04.645Z,152.40
2023-02-13T02:12:03.090Z,154.80
2023-02-13T02:13:03.060Z,154.09
2023-02-13T02:14:03.043Z,154.23
2023-02-13T02:15:03.049Z,154.80
2023-02-13T02:16:03.053Z,154.94
2023-02-13T02:17:03.060Z,156.10
2023-02-13T02:18:02.998Z,156.69
2023-02-13T02:19:02.987Z,157.88
2023-02-13T02:20:02.990Z,158.18
2023-02-13T02:21:02.965Z,158.48
2023-02-13T02:22:02.965Z,159.69
2023-02-13T02:23:02.964Z,159.99
2023-02-13T02:24:02.970Z,161.54
2023-02-13T02:25:02.929Z,160.92
2023-02-13T02:26:02.919Z,161.23
2023-02-13T02:27:02.927Z,161.08
2023-02-13T02:28:03.172Z,161.54
2023-02-13T02:29:02.900Z,161.54
2023-02-13T02:30:02.875Z,161.54
2023-02-13T02:31:02.928Z,161.23
2023-02-13T02:32:02.859Z,161.54
2023-02-13T02:33:02.844Z,162.17
2023-02-13T02:34:03.689Z,162.49
2023-02-13T02:35:02.862Z,162.33
2023-02-13T02:36:02.825Z,162.49
2023-02-13T02:37:02.807Z,162.80
2023-02-13T02:38:02.809Z,163.44
2023-02-13T02:39:03.494Z,163.92
2023-02-13T02:40:02.794Z,164.09
2023-02-13T02:41:02.767Z,163.92
2023-02-13T02:42:02.746Z,163.44
2023-02-13T02:43:02.796Z,163.44
2023-02-13T02:44:02.766Z,164.57
2023-02-13T02:45:02.723Z,164.25
2023-02-13T02:46:02.715Z,164.57
2023-02-13T02:47:02.720Z,164.57
2023-02-13T02:48:02.690Z,164.41
2023-02-13T02:49:02.671Z,164.57
2023-02-13T02:50:02.693Z,165.39
2023-02-13T02:51:02.679Z,165.71
2023-02-13T02:52:02.648Z,165.88
2023-02-13T02:53:02.621Z,165.55
2023-02-13T02:54:02.606Z,165.55
2023-02-13T02:55:02.602Z,165.55
2023-02-13T02:56:02.589Z,165.71
2023-02-13T02:57:02.618Z,166.04
2023-02-13T02:58:02.553Z,166.21
2023-02-13T02:59:02.559Z,167.88
2023-02-13T03:00:02.571Z,167.21
2023-02-13T03:01:02.645Z,167.88
2023-02-13T03:02:02.525Z,167.71
2023-02-13T03:03:02.535Z,169.07
2023-02-13T03:04:02.568Z,168.73
2023-02-13T03:05:02.490Z,168.90
2023-02-13T03:06:02.508Z,168.22
2023-02-13T03:07:03.438Z,167.71
2023-02-13T03:08:02.496Z,168.22
2023-02-13T03:09:02.474Z,167.71
2023-02-13T03:10:02.431Z,167.38
2023-02-13T03:11:02.421Z,167.54
2023-02-13T03:12:02.427Z,168.22
2023-02-13T03:13:02.432Z,167.88
2023-02-13T03:14:02.375Z,167.88
2023-02-13T03:15:02.407Z,168.39
2023-02-13T03:16:02.390Z,167.54
2023-02-13T03:17:02.345Z,167.21
2023-02-13T03:18:02.374Z,167.54
2023-02-13T03:19:02.360Z,167.71
2023-02-13T03:20:02.370Z,166.38
2023-02-13T03:21:02.313Z,167.04
2023-02-13T03:22:02.290Z,166.88
2023-02-13T03:23:02.286Z,165.71
2023-02-13T03:24:02.301Z,165.55
2023-02-13T03:25:02.284Z,165.39
2023-02-13T03:26:02.272Z,165.55
2023-02-13T03:27:02.234Z,165.06
2023-02-13T03:28:02.279Z,165.06
2023-02-13T03:29:02.936Z,165.22
2023-02-13T03:30:02.215Z,165.55
2023-02-13T03:31:02.225Z,165.55
2023-02-13T03:32:02.229Z,166.04
2023-02-13T03:33:02.178Z,165.88
2023-02-13T03:34:02.180Z,166.71
2023-02-13T03:35:02.206Z,165.88
2023-02-13T03:36:02.179Z,166.21
2023-02-13T03:37:02.147Z,166.54
2023-02-13T03:38:02.174Z,166.71
2023-02-13T03:39:02.101Z,167.38
2023-02-13T03:40:02.819Z,167.04
2023-02-13T03:41:02.118Z,167.38
2023-02-13T03:42:02.081Z,167.54
2023-02-13T03:43:02.089Z,167.21
2023-02-13T03:44:02.105Z,166.71
2023-02-13T03:45:02.085Z,166.54
2023-02-13T03:46:02.942Z,166.21
2023-02-13T03:47:02.086Z,165.88
2023-02-13T03:48:02.025Z,165.39
2023-02-13T03:49:02.012Z,164.57
2023-02-13T03:50:02.014Z,164.09
2023-02-13T03:51:02.031Z,164.25
2023-02-13T03:52:02.003Z,164.25
2023-02-13T03:53:01.953Z,163.60
2023-02-13T03:54:01.958Z,163.44
2023-02-13T03:55:01.955Z,163.28
2023-02-13T03:56:01.958Z,162.49
2023-02-13T03:57:01.921Z,161.70
2023-02-13T03:58:01.914Z,161.70
2023-02-13T03:59:01.891Z,161.39
2023-02-13T04:00:01.906Z,161.54
2023-02-13T04:01:02.708Z,162.49
2023-02-13T04:02:02.798Z,161.70
2023-02-13T04:03:01.857Z,162.01
2023-02-13T04:04:01.835Z,160.76
2023-02-13T04:05:01.844Z,160.92
2023-02-13T04:06:01.862Z,160.30
2023-02-13T04:07:01.849Z,160.30
2023-02-13T04:08:01.795Z,160.46
2023-02-13T04:09:01.794Z,160.15
2023-02-13T04:10:01.804Z,160.61
2023-02-13T04:11:01.784Z,161.39
2023-02-13T04:12:01.754Z,161.08
2023-02-13T04:13:01.735Z,160.46
2023-02-13T04:14:01.751Z,160.92
2023-02-13T04:15:01.722Z,159.99
2023-02-13T04:16:01.744Z,159.69
2023-02-13T04:17:01.723Z,159.69
2023-02-13T04:18:01.699Z,159.38
2023-02-13T04:19:01.688Z,158.63
2023-02-13T04:20:01.668Z,158.02
2023-02-13T04:21:01.687Z,157.73
2023-02-13T04:22:02.400Z,156.69
2023-02-13T04:23:01.620Z,155.67
2023-02-13T04:24:01.628Z,154.66
2023-02-13T04:25:01.622Z,152.82
2023-02-13T04:26:01.609Z,151.98
2023-02-13T04:27:01.609Z,150.61
2023-02-13T04:28:01.626Z,150.20
2023-02-13T04:29:01.559Z,149.40
2023-02-13T04:30:01.590Z,149.53
2023-02-13T04:31:02.082Z,148.86
2023-02-13T04:32:01.639Z,148.33
2023-02-13T04:33:01.525Z,147.16
2023-02-13T04:34:01.534Z,146.90
2023-02-13T04:35:01.520Z,145.74
2023-02-13T04:36:02.442Z,147.16
2023-02-13T04:37:01.494Z,146.00
2023-02-13T04:38:01.493Z,147.03
2023-02-13T04:39:01.486Z,147.16
2023-02-13T04:40:01.451Z,147.81
2023-02-13T04:41:01.435Z,148.33
2023-02-13T04:42:01.496Z,147.94
2023-02-13T04:43:01.453Z,148.46
2023-02-13T04:44:01.440Z,149.26
2023-02-13T04:45:01.433Z,149.66
2023-02-13T04:46:02.151Z,150.07
2023-02-13T04:47:02.259Z,150.20
2023-02-13T04:48:02.236Z,150.61
2023-02-13T04:49:01.405Z,150.88
2023-02-13T04:50:01.367Z,151.29
2023-02-13T04:51:02.184Z,151.02
2023-02-13T04:52:01.342Z,150.47
2023-02-13T04:53:01.319Z,149.80
2023-02-13T04:54:01.437Z,150.20
2023-02-13T04:55:01.315Z,150.20
2023-02-13T04:56:01.513Z,150.34
2023-02-13T04:57:22.321Z,149.66
2023-02-13T04:58:01.289Z,149.26
2023-02-13T04:59:01.289Z,149.93
2023-02-13T05:00:01.388Z,149.53
2023-02-13T05:01:01.299Z,148.73
2023-02-13T05:02:01.241Z,148.46
2023-02-13T05:03:01.267Z,148.46
2023-02-13T05:04:01.923Z,146.64
2023-02-13T05:05:01.392Z,147.03
2023-02-13T05:06:01.172Z,146.90
2023-02-13T05:07:01.824Z,146.38
2023-02-13T05:08:01.229Z,146.00
2023-02-13T05:09:01.165Z,144.11
2023-02-13T05:10:01.149Z,144.73
2023-02-13T05:11:01.196Z,144.48
2023-02-13T05:12:01.098Z,142.87
2023-02-13T05:13:04.102Z,142.26
2023-02-13T05:14:01.154Z,142.14
2023-02-13T05:15:02.241Z,142.14
2023-02-13T05:16:01.191Z,140.82
2023-02-13T05:17:01.862Z,140.82
2023-02-13T05:18:09.473Z,140.23
2023-02-13T05:19:01.001Z,139.99
2023-02-13T05:20:00.971Z,139.29
2023-02-13T05:21:02.823Z,139.76
2023-02-13T05:22:01.649Z,139.99
2023-02-13T05:23:01.000Z,139.88
2023-02-13T05:24:00.943Z,139.88
2023-02-13T05:25:01.876Z,139.88
2023-02-13T05:26:00.929Z,138.95
2023-02-13T05:27:00.899Z,139.53
2023-02-13T05:28:00.898Z,139.88
2023-02-13T05:29:01.760Z,139.06
2023-02-13T05:30:01.727Z,139.76
2023-02-13T05:31:01.321Z,138.95
2023-02-13T05:32:01.649Z,139.76
2023-02-13T05:33:00.833Z,139.41
2023-02-13T05:34:01.495Z,139.53
2023-02-13T05:35:03.412Z,138.71
2023-02-13T05:36:00.860Z,138.83
2023-02-13T05:37:00.792Z,138.37
2023-02-13T05:38:00.794Z,139.18
2023-02-13T05:39:00.815Z,137.91
2023-02-13T05:40:00.758Z,137.80
2023-02-13T05:41:00.743Z,137.23
2023-02-13T05:42:01.401Z,136.67
2023-02-13T05:43:00.747Z,137.35
2023-02-13T05:44:00.723Z,136.78
2023-02-13T05:45:00.744Z,137.01
2023-02-13T05:46:01.382Z,136.11
2023-02-13T05:47:00.687Z,137.01
2023-02-13T05:48:00.703Z,137.23
2023-02-13T05:49:01.542Z,136.56
2023-02-13T05:50:01.691Z,137.12
2023-02-13T05:51:00.654Z,137.12
2023-02-13T05:52:00.651Z,137.01
2023-02-13T05:53:00.625Z,136.67
2023-02-13T05:54:00.726Z,136.90
2023-02-13T05:55:00.609Z,135.89
2023-02-13T05:56:00.603Z,136.56
2023-02-13T05:57:00.571Z,136.78
2023-02-13T05:58:00.558Z,136.34
2023-02-13T05:59:00.565Z,136.56
2023-02-13T06:00:00.566Z,136.22
2023-02-13T06:01:00.649Z,135.78
2023-02-13T06:02:00.516Z,135.89
2023-02-13T06:03:00.581Z,136.56
2023-02-13T06:04:03.408Z,136.11
2023-02-13T06:05:00.512Z,136.22
2023-02-13T06:06:00.465Z,135.56
2023-02-13T06:07:00.480Z,136.22
2023-02-13T06:08:00.451Z,135.89
2023-02-13T06:09:00.447Z,135.67
2023-02-13T06:10:00.453Z,135.34
2023-02-13T06:11:00.741Z,134.90
2023-02-13T06:12:00.415Z,134.58
2023-02-13T06:13:00.440Z,134.25
2023-02-13T06:14:01.055Z,134.25
2023-02-13T06:15:00.392Z,133.71
2023-02-13T06:16:00.395Z,133.39
2023-02-13T06:17:00.358Z,133.50
2023-02-13T06:18:00.369Z,133.39
2023-02-13T06:19:00.339Z,133.61
2023-02-13T06:20:01.019Z,133.50
2023-02-13T06:21:00.376Z,133.39
2023-02-13T06:22:00.308Z,132.97
2023-02-13T06:23:00.386Z,133.29
2023-02-13T06:24:00.287Z,133.18
2023-02-13T06:25:01.152Z,134.25
2023-02-13T06:26:00.309Z,134.25
2023-02-13T06:27:01.103Z,135.34
2023-02-13T06:28:00.282Z,134.47
2023-02-13T06:29:00.226Z,135.78
2023-02-13T06:30:00.207Z,136.67
2023-02-13T06:31:00.791Z,136.45
2023-02-13T06:32:00.299Z,137.01
2023-02-13T06:33:00.192Z,137.80
2023-02-13T06:34:01.125Z,138.26
2023-02-13T06:35:00.196Z,139.41
2023-02-13T06:36:00.189Z,139.88
2023-02-13T06:37:00.139Z,140.35
2023-02-13T06:38:00.158Z,140.47
2023-02-13T06:39:00.138Z,142.02
2023-02-13T06:40:00.143Z,143.49
2023-02-13T06:41:00.413Z,145.62
2023-02-13T06:42:00.090Z,146.38
2023-02-13T06:43:00.085Z,147.42
2023-02-13T06:44:01.034Z,148.20
2023-02-13T06:45:00.048Z,148.99
2023-02-13T06:46:00.062Z,148.60
2023-02-13T06:47:01.040Z,149.40
2023-02-13T06:48:00.014Z,150.74
2023-02-13T06:49:00.005Z,151.02
2023-02-13T06:49:59.992Z,151.57
2023-02-13T06:51:00.037Z,150.88
2023-02-13T06:52:00.046Z,152.12
2023-02-13T06:53:00.922Z,151.29
2023-02-13T06:53:59.943Z,151.57
2023-02-13T06:54:59.944Z,152.26
2023-02-13T06:56:00.803Z,152.40
2023-02-13T06:56:59.945Z,152.96
2023-02-13T06:57:59.918Z,152.54
2023-02-13T06:58:59.899Z,152.40
2023-02-13T06:59:59.894Z,154.09
2023-02-13T07:01:00.284Z,153.66
2023-02-13T07:01:59.925Z,152.96
2023-02-13T07:02:59.889Z,153.38
2023-02-13T07:03:59.844Z,151.43
2023-02-13T07:04:59.832Z,151.84
2023-02-13T07:05:59.839Z,151.98
2023-02-13T07:06:59.819Z,151.84
2023-02-13T07:08:00.778Z,152.12
2023-02-13T07:08:59.792Z,153.24
2023-02-13T07:09:59.788Z,154.94
2023-02-13T07:10:59.985Z,154.51
2023-02-13T07:11:59.754Z,155.09
2023-02-13T07:13:05.761Z,155.81
2023-02-13T07:14:01.636Z,157.13
2023-02-13T07:14:59.743Z,158.18
2023-02-13T07:15:59.740Z,159.23
2023-02-13T07:16:59.701Z,159.38
2023-02-13T07:17:59.708Z,160.30
2023-02-13T07:18:59.701Z,160.76
2023-02-13T07:19:59.700Z,161.39
2023-02-13T07:20:59.906Z,160.76
2023-02-13T07:21:59.645Z,161.23
2023-02-13T07:22:59.696Z,161.08
2023-02-13T07:23:59.621Z,162.01
2023-02-13T07:24:59.645Z,161.86
2023-02-13T07:25:59.620Z,161.86
2023-02-13T07:26:59.599Z,162.65
2023-02-13T07:28:00.295Z,161.54
2023-02-13T07:29:10.859Z,163.44
2023-02-13T07:30:00.584Z,161.86
2023-02-13T07:31:00.566Z,162.17
2023-02-13T07:31:59.619Z,163.12
2023-02-13T07:32:59.551Z,162.01
2023-02-13T07:33:59.515Z,162.65
2023-02-13T07:35:02.317Z,162.80
2023-02-13T07:35:59.515Z,162.96
2023-02-13T07:36:59.483Z,163.76
2023-02-13T07:37:59.482Z,163.44
2023-02-13T07:38:59.463Z,163.28
2023-02-13T07:39:59.452Z,163.60
2023-02-13T07:40:59.680Z,164.57
2023-02-13T07:42:00.112Z,165.39
2023-02-13T07:42:59.445Z,165.71
2023-02-13T07:43:59.425Z,166.21
2023-02-13T07:45:00.264Z,166.71
2023-02-13T07:46:00.345Z,168.05
2023-02-13T07:47:01.334Z,167.04
2023-02-13T07:47:59.370Z,167.88
2023-02-13T07:48:59.366Z,169.24
2023-02-13T07:50:00.020Z,169.76
2023-02-13T07:51:00.219Z,169.07
2023-02-13T07:51:59.334Z,168.56
2023-02-13T07:52:59.380Z,168.56
2023-02-13T07:53:59.310Z,168.90
2023-02-13T07:54:59.296Z,169.93
2023-02-13T07:55:59.994Z,170.28
2023-02-13T07:56:59.285Z,170.45
2023-02-13T07:58:00.254Z,171.51
2023-02-13T07:58:59.252Z,171.86
2023-02-13T07:59:59.248Z,171.68
2023-02-13T08:00:59.226Z,171.86
2023-02-13T08:02:00.181Z,172.21
2023-02-13T08:02:59.918Z,171.51
2023-02-13T08:03:59.250Z,173.29
2023-02-13T08:04:59.210Z,173.47
2023-02-13T08:05:59.447Z,173.83
2023-02-13T08:06:59.186Z,173.65
2023-02-13T08:07:59.158Z,174.37
2023-02-13T08:08:59.145Z,173.83
2023-02-13T08:10:00.637Z,172.39
2023-02-13T08:11:00.988Z,172.39
2023-02-13T08:11:59.755Z,172.93
2023-02-13T08:12:59.101Z,171.51
2023-02-13T08:14:00.585Z,171.15
2023-02-13T08:14:59.084Z,171.33
2023-02-13T08:15:59.339Z,171.33
2023-02-13T08:16:59.074Z,171.33
2023-02-13T08:17:59.050Z,172.21
2023-02-13T08:18:59.031Z,172.39
2023-02-13T08:19:59.037Z,173.65
2023-02-13T08:20:59.649Z,173.83
2023-02-13T08:21:59.014Z,173.29
2023-02-13T08:22:59.028Z,173.83
2023-02-13T08:23:58.972Z,173.11
2023-02-13T08:24:58.967Z,172.04
2023-02-13T08:25:59.306Z,171.33
2023-02-13T08:27:00.314Z,169.76
2023-02-13T08:27:58.932Z,169.42
2023-02-13T08:28:58.917Z,169.76
2023-02-13T08:29:58.922Z,170.45
2023-02-13T08:30:58.922Z,170.28
2023-02-13T08:31:58.938Z,168.22
2023-02-13T08:32:58.868Z,169.42
2023-02-13T08:33:58.864Z,169.07
2023-02-13T08:34:58.865Z,169.93
2023-02-13T08:35:59.695Z,170.45
2023-02-13T08:36:59.634Z,170.98
2023-02-13T08:37:58.823Z,170.80
2023-02-13T08:38:58.811Z,170.28
2023-02-13T08:39:58.794Z,170.45
2023-02-13T08:40:59.154Z,170.98
2023-02-13T08:41:58.769Z,171.15
2023-02-13T08:42:59.954Z,169.93
2023-02-13T08:43:58.755Z,171.68
2023-02-13T08:44:59.668Z,171.51
2023-02-13T08:45:59.064Z,171.86
2023-02-13T08:46:58.731Z,171.51
2023-02-13T08:47:59.675Z,169.59
2023-02-13T08:48:58.706Z,170.45
2023-02-13T08:49:59.359Z,169.07
2023-02-13T08:50:58.678Z,167.21
2023-02-13T08:51:58.686Z,168.05
2023-02-13T08:52:58.683Z,168.05
2023-02-13T08:53:59.496Z,167.04
2023-02-13T08:54:58.641Z,164.73
2023-02-13T08:55:59.015Z,165.22
2023-02-13T08:56:58.806Z,163.44
2023-02-13T08:57:58.616Z,161.39
2023-02-13T08:58:58.632Z,162.01
2023-02-13T08:59:58.601Z,161.70
2023-02-13T09:00:58.603Z,162.80
2023-02-13T09:01:58.565Z,163.12
2023-02-13T09:02:59.261Z,162.96
2023-02-13T09:03:59.423Z,163.76
2023-02-13T09:04:58.534Z,164.41
2023-02-13T09:05:58.820Z,164.09
2023-02-13T09:06:58.505Z,164.09
2023-02-13T09:07:58.515Z,163.60
2023-02-13T09:08:58.509Z,163.60
2023-02-13T09:10:00.325Z,164.73
2023-02-13T09:10:58.546Z,163.76
2023-02-13T09:12:01.169Z,164.09
2023-02-13T09:12:58.458Z,164.41
2023-02-13T09:13:58.446Z,165.39
2023-02-13T09:14:59.273Z,166.71
2023-02-13T09:15:58.784Z,166.38
2023-02-13T09:16:58.443Z,167.04
2023-02-13T09:17:58.387Z,167.04
2023-02-13T09:18:58.397Z,167.88
2023-02-13T09:19:58.390Z,166.88
2023-02-13T09:20:58.360Z,166.71
2023-02-13T09:21:58.989Z,166.71
2023-02-13T09:22:58.359Z,167.04
2023-02-13T09:23:58.328Z,167.38
2023-02-13T09:24:58.362Z,166.38
2023-02-13T09:25:58.589Z,167.88
2023-02-13T09:26:58.298Z,166.88
2023-02-13T09:27:58.289Z,169.07
2023-02-13T09:28:58.292Z,168.05
2023-02-13T09:29:58.268Z,167.38
2023-02-13T09:30:58.417Z,167.38
2023-02-13T09:31:58.335Z,166.71
2023-02-13T09:32:58.233Z,167.88
2023-02-13T09:33:58.240Z,167.71
2023-02-13T09:34:58.215Z,167.54
2023-02-13T09:35:58.492Z,167.38
2023-02-13T09:36:58.188Z,167.04
2023-02-13T09:37:59.047Z,167.54
2023-02-13T09:38:58.185Z,167.71
2023-02-13T09:39:58.156Z,168.05
2023-02-13T09:40:58.139Z,167.38
2023-02-13T09:41:58.130Z,167.38
2023-02-13T09:42:58.763Z,168.22
2023-02-13T09:43:58.921Z,167.21
2023-02-13T09:44:58.100Z,167.54
2023-02-13T09:45:58.467Z,166.54
2023-02-13T09:46:58.769Z,167.71
2023-02-13T09:47:58.062Z,167.38
2023-02-13T09:48:58.054Z,167.21
2023-02-13T09:49:58.066Z,169.07
2023-02-13T09:50:58.029Z,168.39
2023-02-13T09:51:58.049Z,168.90
2023-02-13T09:52:58.013Z,168.39
2023-02-13T09:53:58.058Z,169.42
2023-02-13T09:54:58.050Z,168.39
2023-02-13T09:55:58.373Z,169.42
2023-02-13T09:56:58.606Z,169.59
2023-02-13T09:57:58.774Z,169.42
2023-02-13T09:58:57.945Z,169.07
2023-02-13T09:59:57.956Z,167.38
2023-02-13T10:00:58.139Z,169.42
2023-02-13T10:01:58.809Z,168.22
2023-02-13T10:02:57.900Z,167.54
2023-02-13T10:03:59.758Z,165.71
2023-02-13T10:04:57.921Z,164.41
2023-02-13T10:05:58.359Z,163.28
2023-02-13T10:06:57.870Z,164.25
2023-02-13T10:07:58.500Z,162.80
2023-02-13T10:08:57.846Z,163.28
2023-02-13T10:09:58.704Z,162.80
2023-02-13T10:10:58.675Z,162.01
2023-02-13T10:11:57.809Z,161.39
2023-02-13T10:12:57.831Z,163.12
2023-02-13T10:13:58.649Z,163.92
2023-02-13T10:14:57.790Z,164.25
2023-02-13T10:15:58.935Z,164.90
2023-02-13T10:16:57.744Z,167.38
2023-02-13T10:17:57.737Z,167.38
2023-02-13T10:18:57.749Z,166.71
2023-02-13T10:19:57.809Z,168.90
2023-02-13T10:20:59.587Z,170.28
2023-02-13T10:21:58.369Z,169.93
2023-02-13T10:22:59.392Z,171.68
2023-02-13T10:23:58.725Z,172.04
2023-02-13T10:24:57.679Z,172.57
2023-02-13T10:25:58.095Z,173.47
2023-02-13T10:26:57.667Z,174.74
2023-02-13T10:27:58.309Z,174.37
2023-02-13T10:28:57.630Z,175.84
2023-02-13T10:30:05.191Z,174.55
2023-02-13T10:30:57.659Z,175.10
2023-02-13T10:31:57.728Z,176.96
2023-02-13T10:32:58.543Z,176.59
2023-02-13T10:33:57.561Z,178.09
2023-02-13T10:35:00.085Z,180.21
2023-02-13T10:35:58.744Z,180.99
2023-02-13T10:36:59.073Z,182.18
2023-02-13T10:37:57.524Z,183.99
2023-02-13T10:38:58.518Z,185.62
2023-02-13T10:39:57.530Z,185.83
2023-02-13T10:40:57.493Z,187.10
2023-02-13T10:41:59.477Z,187.10
2023-02-13T10:42:59.252Z,187.75
2023-02-13T10:43:58.387Z,187.96
2023-02-13T10:44:57.477Z,187.00
2023-02-13T10:45:57.929Z,187.85
2023-02-13T10:46:58.314Z,187.96
2023-02-13T10:47:58.104Z,189.59
2023-02-13T10:48:59.268Z,190.36
2023-02-13T10:49:57.401Z,191.25
2023-02-13T10:50:57.403Z,191.70
2023-02-13T10:51:58.582Z,192.37
2023-02-13T10:52:57.393Z,189.04
2023-02-13T10:53:57.349Z,184.99
2023-02-13T10:54:57.347Z,183.99
2023-02-13T10:55:57.599Z,179.82
2023-02-13T10:56:57.979Z,179.43
2023-02-13T10:57:57.355Z,179.63
2023-02-13T10:58:58.005Z,178.29
2023-02-13T10:59:57.284Z,179.43
2023-02-13T11:00:57.276Z,180.21
2023-02-13T11:01:58.287Z,182.18
2023-02-13T11:02:57.252Z,182.38
2023-02-13T11:03:57.291Z,182.78
2023-02-13T11:04:57.248Z,185.42
2023-02-13T11:05:57.553Z,186.45
2023-02-13T11:06:58.210Z,185.62
2023-02-13T11:07:57.194Z,187.53
2023-02-13T11:08:58.721Z,188.83
2023-02-13T11:09:58.033Z,191.81
2023-02-13T11:10:57.164Z,194.77
2023-02-13T11:11:58.134Z,196.75
2023-02-13T11:12:59.036Z,197.94
2023-02-13T11:13:57.799Z,199.14
2023-02-13T11:14:57.944Z,201.34
2023-02-13T11:15:58.239Z,201.46
2023-02-13T11:16:58.726Z,202.46
2023-02-13T11:17:57.080Z,203.09
2023-02-13T11:18:57.714Z,204.10
2023-02-13T11:19:57.065Z,203.59
2023-02-13T11:20:57.050Z,204.99
2023-02-13T11:21:57.032Z,205.12
2023-02-13T11:22:57.020Z,206.02
2023-02-13T11:23:57.998Z,205.76
2023-02-13T11:24:57.003Z,206.41
2023-02-13T11:25:57.253Z,208.37
2023-02-13T11:26:58.505Z,209.04
2023-02-13T11:27:56.997Z,209.30
2023-02-13T11:28:56.987Z,211.60
2023-02-13T11:29:56.970Z,213.53
2023-02-13T11:30:57.011Z,213.39
2023-02-13T11:31:57.080Z,215.35
2023-02-13T11:32:56.923Z,215.63
2023-02-13T11:33:58.885Z,214.78
2023-02-13T11:34:56.920Z,215.77
2023-02-13T11:35:57.160Z,215.21
2023-02-13T11:36:56.869Z,215.77
2023-02-13T11:37:56.862Z,215.35
2023-02-13T11:38:56.895Z,217.20
2023-02-13T11:39:57.789Z,215.91
2023-02-13T11:40:56.827Z,215.77
2023-02-13T11:41:56.832Z,215.35
2023-02-13T11:42:57.770Z,215.63
2023-02-13T11:43:56.813Z,215.35
2023-02-13T11:44:57.520Z,214.78
2023-02-13T11:45:58.052Z,213.66
2023-02-13T11:46:56.832Z,214.08
2023-02-13T11:47:56.752Z,214.08
2023-02-13T11:48:57.443Z,213.25
2023-02-13T11:49:56.781Z,213.39
2023-02-13T11:50:56.729Z,214.36
2023-02-13T11:51:56.731Z,213.25
2023-02-13T11:52:56.739Z,211.46
2023-02-13T11:53:56.694Z,211.46
2023-02-13T11:54:57.394Z,211.74
2023-02-13T11:55:57.042Z,212.15
2023-02-13T11:57:05.417Z,212.42
2023-02-13T11:57:57.658Z,211.74
2023-02-13T11:58:58.578Z,211.87
2023-02-13T11:59:56.632Z,212.70
2023-02-13T12:00:56.646Z,212.15
2023-02-13T12:01:56.672Z,213.94
2023-02-13T12:02:57.310Z,213.66
2023-02-13T12:03:57.809Z,212.70
2023-02-13T12:04:56.606Z,212.70
2023-02-13T12:05:58.417Z,213.11
2023-02-13T12:06:56.552Z,212.01
2023-02-13T12:07:57.537Z,213.25
2023-02-13T12:08:57.426Z,210.92
2023-02-13T12:09:56.519Z,211.05
2023-02-13T12:10:56.540Z,208.64
2023-02-13T12:11:56.507Z,207.45
2023-02-13T12:12:56.535Z,205.63
2023-02-13T12:13:57.344Z,202.71
2023-02-13T12:14:57.114Z,201.09
2023-02-13T12:15:56.900Z,199.38
2023-02-13T12:16:56.541Z,198.18
2023-02-13T12:17:57.085Z,196.63
2023-02-13T12:18:56.452Z,196.05
2023-02-13T12:19:56.413Z,194.88
2023-02-13T12:20:57.548Z,194.88
2023-02-13T12:21:57.349Z,193.85
2023-02-13T12:22:56.421Z,195.12
2023-02-13T12:23:57.050Z,193.62
2023-02-13T12:24:57.205Z,193.16
2023-02-13T12:25:56.784Z,194.19
2023-02-13T12:26:56.348Z,192.37
2023-02-13T12:27:56.336Z,190.58